createdAt,value
2023-02-01T00:00:32.551Z,66
2023-02-01T00:02:02.931Z,66
2023-02-01T00:03:33.358Z,66
2023-02-01T00:05:03.708Z,66
2023-02-01T00:06:34.161Z,66
2023-02-01T00:08:04.694Z,66
2023-02-01T00:09:35.264Z,66
2023-02-01T00:11:37.708Z,66
2023-02-01T00:13:08.223Z,66
2023-02-01T00:14:38.652Z,66
2023-02-01T00:16:09.057Z,66
2023-02-01T00:17:39.497Z,66
2023-02-01T00:19:10.006Z,66
2023-02-01T00:20:40.150Z,66
2023-02-01T00:22:10.473Z,66
2023-02-01T00:23:40.829Z,66
2023-02-01T00:25:11.229Z,66
2023-02-01T00:26:41.563Z,66
2023-02-01T00:28:11.932Z,66
2023-02-01T00:29:42.262Z,66
2023-02-01T00:31:12.683Z,66
2023-02-01T00:32:42.922Z,66
2023-02-01T00:34:13.435Z,66
2023-02-01T00:35:43.733Z,66
2023-02-01T00:37:14.212Z,66
2023-02-01T00:38:44.607Z,66
2023-02-01T00:40:15.108Z,66
2023-02-01T00:41:45.460Z,66
2023-02-01T00:43:16.027Z,66
2023-02-01T00:44:46.370Z,66
2023-02-01T00:46:16.883Z,66
2023-02-01T00:48:19.359Z,66
2023-02-01T00:49:49.885Z,66
2023-02-01T00:51:20.308Z,66
2023-02-01T00:52:50.795Z,66
2023-02-01T00:54:21.191Z,66
2023-02-01T00:56:23.652Z,66
2023-02-01T00:57:53.989Z,66
2023-02-01T00:59:24.368Z,66
2023-02-01T01:00:54.813Z,66
2023-02-01T01:02:25.261Z,66
2023-02-01T01:03:55.649Z,67
2023-02-01T01:05:26.021Z,67
2023-02-01T01:06:56.524Z,67
2023-02-01T01:08:27.005Z,67
2023-02-01T01:09:57.441Z,67
2023-02-01T01:11:27.795Z,67
2023-02-01T01:12:58.187Z,67
2023-02-01T01:14:28.561Z,67
2023-02-01T01:15:58.973Z,67
2023-02-01T01:17:29.257Z,67
2023-02-01T01:18:59.773Z,67
2023-02-01T01:21:02.258Z,67
2023-02-01T01:23:04.732Z,67
2023-02-01T01:25:07.184Z,67
2023-02-01T01:26:37.663Z,67
2023-02-01T01:28:08.067Z,67
2023-02-01T01:29:38.574Z,67
2023-02-01T01:31:09.079Z,67
2023-02-01T01:32:39.455Z,67
2023-02-01T01:34:09.984Z,67
2023-02-01T01:35:40.468Z,67
2023-02-01T01:37:10.964Z,67
2023-02-01T01:38:41.317Z,67
2023-02-01T01:40:11.737Z,67
2023-02-01T01:41:42.406Z,67
2023-02-01T01:43:12.857Z,67
2023-02-01T01:44:43.252Z,67
2023-02-01T01:46:13.695Z,67
2023-02-01T01:47:44.049Z,67
2023-02-01T01:49:14.458Z,67
2023-02-01T01:50:44.874Z,67
2023-02-01T01:52:15.269Z,67
2023-02-01T01:53:45.611Z,67
2023-02-01T01:55:16.014Z,67
2023-02-01T01:56:46.507Z,67
2023-02-01T01:58:16.936Z,67
2023-02-01T02:00:19.804Z,67
2023-02-01T02:01:50.055Z,67
2023-02-01T02:03:20.402Z,67
2023-02-01T02:04:50.842Z,67
2023-02-01T02:06:21.200Z,67
2023-02-01T02:07:51.575Z,67
2023-02-01T02:10:00.368Z,67
2023-02-01T02:11:24.544Z,66
2023-02-01T02:12:54.865Z,67
2023-02-01T02:14:25.273Z,66
2023-02-01T02:15:55.689Z,67
2023-02-01T02:17:26.088Z,67
2023-02-01T02:18:56.469Z,67
2023-02-01T02:20:26.857Z,67
2023-02-01T02:21:57.277Z,67
2023-02-01T02:23:27.608Z,67
2023-02-01T02:24:57.976Z,67
2023-02-01T02:26:28.429Z,67
2023-02-01T02:27:58.823Z,67
2023-02-01T02:29:29.417Z,67
2023-02-01T02:30:59.789Z,67
2023-02-01T02:32:30.105Z,66
2023-02-01T02:34:00.569Z,67
2023-02-01T02:36:02.969Z,67
2023-02-01T02:37:33.396Z,67
2023-02-01T02:39:03.886Z,67
2023-02-01T02:40:34.385Z,67
2023-02-01T02:42:04.780Z,67
2023-02-01T02:43:35.331Z,67
2023-02-01T02:45:05.759Z,67
2023-02-01T02:46:36.100Z,67
2023-02-01T02:48:06.506Z,67
2023-02-01T02:49:36.913Z,67
2023-02-01T02:51:39.341Z,67
2023-02-01T02:53:09.737Z,66
2023-02-01T02:54:40.215Z,67
2023-02-01T02:56:42.747Z,67
2023-02-01T02:58:13.123Z,67
2023-02-01T03:00:15.711Z,67
2023-02-01T03:01:46.028Z,67
2023-02-01T03:03:16.344Z,67
2023-02-01T03:04:46.674Z,67
2023-02-01T03:06:17.128Z,67
2023-02-01T03:07:47.540Z,67
2023-02-01T03:09:17.817Z,67
2023-02-01T03:10:48.186Z,67
2023-02-01T03:12:18.559Z,67
2023-02-01T03:13:48.891Z,67
2023-02-01T03:15:19.378Z,67
2023-02-01T03:17:21.860Z,67
2023-02-01T03:18:52.194Z,67
2023-02-01T03:20:22.826Z,67
2023-02-01T03:21:52.921Z,67
2023-02-01T03:23:23.225Z,67
2023-02-01T03:24:53.578Z,67
2023-02-01T03:26:24.063Z,67
2023-02-01T03:27:54.316Z,67
2023-02-01T03:29:24.762Z,67
2023-02-01T03:30:55.230Z,67
2023-02-01T03:32:57.703Z,67
2023-02-01T03:35:00.299Z,67
2023-02-01T03:36:30.993Z,67
2023-02-01T03:38:01.314Z,67
2023-02-01T03:39:31.683Z,67
2023-02-01T03:41:02.113Z,67
2023-02-01T03:42:32.508Z,67
2023-02-01T03:44:02.924Z,67
2023-02-01T03:45:33.362Z,67
2023-02-01T03:47:03.902Z,67
2023-02-01T03:48:34.148Z,67
2023-02-01T03:50:04.604Z,67
2023-02-01T03:51:35.218Z,67
2023-02-01T03:53:05.573Z,67
2023-02-01T03:54:35.990Z,67
2023-02-01T03:56:06.501Z,67
2023-02-01T03:57:36.976Z,67
2023-02-01T03:59:39.431Z,67
2023-02-01T04:01:09.894Z,67
2023-02-01T04:02:40.594Z,67
2023-02-01T04:04:10.831Z,67
2023-02-01T04:05:41.234Z,67
2023-02-01T04:07:11.593Z,67
2023-02-01T04:08:41.963Z,67
2023-02-01T04:10:12.293Z,67
2023-02-01T04:11:42.636Z,67
2023-02-01T04:13:13.055Z,67
2023-02-01T04:14:43.438Z,67
2023-02-01T04:16:13.853Z,67
2023-02-01T04:17:44.267Z,67
2023-02-01T04:19:14.615Z,67
2023-02-01T04:20:45.029Z,67
2023-02-01T04:23:45.758Z,67
2023-02-01T04:25:16.184Z,67
2023-02-01T04:26:46.597Z,67
2023-02-01T04:28:16.918Z,67
2023-02-01T04:29:47.221Z,67
2023-02-01T04:31:17.778Z,67
2023-02-01T04:32:48.062Z,67
2023-02-01T04:34:18.457Z,67
2023-02-01T04:35:48.894Z,67
2023-02-01T04:37:19.258Z,67
2023-02-01T04:38:49.668Z,67
2023-02-01T04:40:20.219Z,67
2023-02-01T04:41:50.524Z,67
2023-02-01T04:43:20.946Z,67
2023-02-01T04:44:51.205Z,67
2023-02-01T04:46:21.606Z,67
2023-02-01T04:47:51.980Z,67
2023-02-01T04:49:22.299Z,67
2023-02-01T04:50:52.726Z,67
2023-02-01T04:52:23.152Z,67
2023-02-01T04:53:53.546Z,67
2023-02-01T04:55:23.950Z,67
2023-02-01T04:56:54.309Z,67
2023-02-01T04:58:24.731Z,67
2023-02-01T04:59:55.115Z,67
2023-02-01T05:01:25.639Z,67
2023-02-01T05:02:55.884Z,67
2023-02-01T05:04:26.182Z,67
2023-02-01T05:05:56.482Z,67
2023-02-01T05:09:02.431Z,67
2023-02-01T05:10:32.767Z,67
2023-02-01T05:12:03.149Z,67
2023-02-01T05:13:33.483Z,67
2023-02-01T05:15:03.920Z,67
2023-02-01T05:16:34.394Z,67
2023-02-01T05:18:04.831Z,67
2023-02-01T05:19:35.164Z,67
2023-02-01T05:21:05.641Z,67
2023-02-01T05:22:36.064Z,67
2023-02-01T05:24:38.482Z,67
2023-02-01T05:26:08.891Z,67
2023-02-01T05:27:39.246Z,67
2023-02-01T05:29:10.027Z,67
2023-02-01T05:30:42.300Z,67
2023-02-01T05:32:21.499Z,67
2023-02-01T05:33:41.497Z,67
2023-02-01T05:35:11.879Z,67
2023-02-01T05:36:42.451Z,67
2023-02-01T05:38:44.854Z,67
2023-02-01T05:40:15.381Z,67
2023-02-01T05:41:45.791Z,67
2023-02-01T05:43:16.176Z,67
2023-02-01T05:44:46.529Z,67
2023-02-01T05:46:17.097Z,67
2023-02-01T05:47:47.614Z,67
2023-02-01T05:49:18.076Z,67
2023-02-01T05:51:20.628Z,67
2023-02-01T05:52:50.986Z,67
2023-02-01T05:54:21.378Z,67
2023-02-01T05:55:51.821Z,67
2023-02-01T05:57:22.221Z,67
2023-02-01T05:58:52.829Z,67
2023-02-01T06:00:23.417Z,67
2023-02-01T06:02:25.643Z,67
2023-02-01T06:03:55.923Z,67
2023-02-01T06:05:26.239Z,67
2023-02-01T06:07:29.788Z,67
2023-02-01T06:08:59.138Z,67
2023-02-01T06:10:29.374Z,67
2023-02-01T06:11:59.854Z,67
2023-02-01T06:13:31.213Z,67
2023-02-01T06:15:00.612Z,67
2023-02-01T06:17:03.135Z,67
2023-02-01T06:18:33.502Z,67
2023-02-01T06:20:03.903Z,67
2023-02-01T06:22:06.483Z,67
2023-02-01T06:23:36.841Z,67
2023-02-01T06:25:07.145Z,67
2023-02-01T06:26:37.652Z,67
2023-02-01T06:28:08.093Z,67
2023-02-01T06:29:38.531Z,67
2023-02-01T06:31:09.087Z,67
2023-02-01T06:32:39.375Z,67
2023-02-01T06:34:09.845Z,67
2023-02-01T06:35:40.183Z,67
2023-02-01T06:37:10.550Z,67
2023-02-01T06:38:40.985Z,67
2023-02-01T06:40:43.477Z,67
2023-02-01T06:42:13.995Z,67
2023-02-01T06:43:44.386Z,67
2023-02-01T06:45:14.831Z,67
2023-02-01T06:46:45.258Z,67
2023-02-01T06:48:15.750Z,67
2023-02-01T06:49:46.168Z,67
2023-02-01T06:51:48.685Z,67
2023-02-01T06:53:51.200Z,67
2023-02-01T06:55:21.624Z,67
2023-02-01T06:56:52.008Z,67
2023-02-01T06:58:22.508Z,67
2023-02-01T06:59:52.990Z,67
2023-02-01T07:01:23.451Z,67
2023-02-01T07:02:53.798Z,67
2023-02-01T07:04:24.279Z,67
2023-02-01T07:05:54.686Z,67
2023-02-01T07:07:57.241Z,67
2023-02-01T07:09:27.650Z,67
2023-02-01T07:10:57.936Z,67
2023-02-01T07:12:28.239Z,67
2023-02-01T07:13:58.749Z,67
2023-02-01T07:16:01.203Z,67
2023-02-01T07:17:31.661Z,67
2023-02-01T07:19:02.219Z,67
2023-02-01T07:20:32.682Z,67
2023-02-01T07:22:03.082Z,67
2023-02-01T07:23:33.583Z,67
2023-02-01T07:25:06.305Z,67
2023-02-01T07:26:34.481Z,67
2023-02-01T07:28:04.926Z,67
2023-02-01T07:29:35.206Z,67
2023-02-01T07:31:05.657Z,67
2023-02-01T07:32:36.185Z,67
2023-02-01T07:34:06.561Z,67
2023-02-01T07:35:36.980Z,67
2023-02-01T07:37:07.357Z,67
2023-02-01T07:38:37.889Z,67
2023-02-01T07:40:08.399Z,67
2023-02-01T07:41:38.648Z,67
2023-02-01T07:43:08.901Z,67
2023-02-01T07:44:39.449Z,67
2023-02-01T07:46:09.912Z,67
2023-02-01T07:47:40.184Z,67
2023-02-01T07:49:10.726Z,67
2023-02-01T07:50:41.137Z,67
2023-02-01T07:52:11.535Z,67
2023-02-01T07:53:41.961Z,67
2023-02-01T07:55:12.258Z,67
2023-02-01T07:56:42.629Z,67
2023-02-01T07:58:13.041Z,67
2023-02-01T08:00:15.455Z,67
2023-02-01T08:01:45.867Z,67
2023-02-01T08:03:17.401Z,67
2023-02-01T08:04:46.726Z,67
2023-02-01T08:06:17.256Z,67
2023-02-01T08:07:47.739Z,67
2023-02-01T08:09:50.150Z,67
2023-02-01T08:11:20.551Z,67
2023-02-01T08:13:23.034Z,67
2023-02-01T08:14:53.432Z,67
2023-02-01T08:16:23.963Z,67
2023-02-01T08:18:26.365Z,67
2023-02-01T08:20:28.816Z,67
2023-02-01T08:21:59.315Z,67
2023-02-01T08:23:29.757Z,67
2023-02-01T08:25:00.082Z,67
2023-02-01T08:26:30.707Z,67
2023-02-01T08:28:32.859Z,67
2023-02-01T08:30:03.277Z,67
2023-02-01T08:31:33.781Z,67
2023-02-01T08:33:04.221Z,67
2023-02-01T08:34:35.823Z,67
2023-02-01T08:36:05.042Z,67
2023-02-01T08:37:35.479Z,67
2023-02-01T08:39:05.942Z,67
2023-02-01T08:41:08.353Z,67
2023-02-01T08:42:38.888Z,67
2023-02-01T08:44:09.218Z,67
2023-02-01T08:45:39.634Z,67
2023-02-01T08:47:10.040Z,67
2023-02-01T08:48:40.400Z,67
2023-02-01T08:50:10.860Z,67
2023-02-01T08:51:41.311Z,67
2023-02-01T08:53:11.744Z,67
2023-02-01T08:54:42.258Z,67
2023-02-01T08:56:12.626Z,67
2023-02-01T08:57:42.972Z,67
2023-02-01T08:59:13.336Z,67
2023-02-01T09:01:15.924Z,68
2023-02-01T09:02:46.318Z,68
2023-02-01T09:04:48.932Z,68
2023-02-01T09:06:51.386Z,68
2023-02-01T09:08:21.709Z,68
2023-02-01T09:09:52.154Z,68
2023-02-01T09:11:22.351Z,68
2023-02-01T09:12:52.898Z,68
2023-02-01T09:14:23.242Z,68
2023-02-01T09:16:26.095Z,68
2023-02-01T09:17:56.510Z,68
2023-02-01T09:19:27.394Z,68
2023-02-01T09:20:57.455Z,68
2023-02-01T09:22:27.768Z,68
2023-02-01T09:23:58.219Z,68
2023-02-01T09:25:28.546Z,68
2023-02-01T09:26:58.978Z,68
2023-02-01T09:28:29.407Z,68
2023-02-01T09:29:59.772Z,68
2023-02-01T09:31:30.318Z,68
2023-02-01T09:33:00.513Z,68
2023-02-01T09:34:30.933Z,68
2023-02-01T09:36:01.292Z,69
2023-02-01T09:37:31.652Z,69
2023-02-01T09:39:01.959Z,69
2023-02-01T09:40:32.396Z,69
2023-02-01T09:42:02.707Z,69
2023-02-01T09:43:33.169Z,69
2023-02-01T09:45:03.512Z,69
2023-02-01T09:46:34.289Z,69
2023-02-01T09:48:04.271Z,69
2023-02-01T09:49:34.758Z,69
2023-02-01T09:51:37.324Z,69
2023-02-01T09:53:07.642Z,69
2023-02-01T09:54:38.097Z,69
2023-02-01T09:56:08.694Z,69
2023-02-01T09:57:39.076Z,69
2023-02-01T09:59:09.470Z,69
2023-02-01T10:00:39.977Z,69
2023-02-01T10:02:10.715Z,70
2023-02-01T10:03:41.219Z,70
2023-02-01T10:05:11.652Z,70
2023-02-01T10:07:14.172Z,70
2023-02-01T10:08:44.760Z,70
2023-02-01T10:10:15.197Z,70
2023-02-01T10:11:45.482Z,70
2023-02-01T10:13:15.797Z,70
2023-02-01T10:14:46.281Z,70
2023-02-01T10:16:16.715Z,70
2023-02-01T10:17:47.027Z,70
2023-02-01T10:19:17.447Z,71
2023-02-01T10:20:47.951Z,71
2023-02-01T10:23:13.582Z,71
2023-02-01T10:24:20.724Z,71
2023-02-01T10:25:51.182Z,71
2023-02-01T10:27:21.525Z,71
2023-02-01T10:28:51.843Z,71
2023-02-01T10:30:22.795Z,71
2023-02-01T10:32:24.919Z,71
2023-02-01T10:33:55.325Z,71
2023-02-01T10:35:25.665Z,70
2023-02-01T10:36:56.053Z,71
2023-02-01T10:38:58.327Z,71
2023-02-01T10:41:00.804Z,71
2023-02-01T10:42:31.184Z,71
2023-02-01T10:44:01.615Z,71
2023-02-01T10:45:32.027Z,71
2023-02-01T10:47:02.494Z,72
2023-02-01T10:48:32.948Z,71
2023-02-01T10:50:03.346Z,72
2023-02-01T10:51:33.759Z,71
2023-02-01T10:53:36.149Z,71
2023-02-01T10:55:06.560Z,71
2023-02-01T10:56:37.146Z,71
2023-02-01T10:58:07.417Z,71
2023-02-01T10:59:37.929Z,71
2023-02-01T11:01:08.384Z,71
2023-02-01T11:02:38.825Z,71
2023-02-01T11:04:09.188Z,71
2023-02-01T11:05:39.635Z,71
2023-02-01T11:07:10.089Z,71
2023-02-01T11:08:40.435Z,71
2023-02-01T11:10:10.758Z,72
2023-02-01T11:11:41.102Z,71
2023-02-01T11:13:11.527Z,72
2023-02-01T11:14:41.996Z,72
2023-02-01T11:16:12.553Z,72
2023-02-01T11:17:42.848Z,72
2023-02-01T11:19:45.267Z,72
2023-02-01T11:21:15.772Z,71
2023-02-01T11:22:46.209Z,72
2023-02-01T11:24:16.771Z,72
2023-02-01T11:25:47.181Z,71
2023-02-01T11:27:26.503Z,71
2023-02-01T11:28:48.014Z,72
2023-02-01T11:30:50.426Z,71
2023-02-01T11:32:20.808Z,71
2023-02-01T11:33:51.203Z,72
2023-02-01T11:35:22.054Z,72
2023-02-01T11:36:51.981Z,72
2023-02-01T11:38:22.444Z,72
2023-02-01T11:39:52.851Z,72
2023-02-01T11:41:23.376Z,73
2023-02-01T11:42:53.854Z,73
2023-02-01T11:44:24.235Z,73
2023-02-01T11:46:26.720Z,73
2023-02-01T11:47:57.240Z,73
2023-02-01T11:49:27.340Z,73
2023-02-01T11:51:29.774Z,73
2023-02-01T11:53:00.405Z,73
2023-02-01T11:54:30.756Z,73
2023-02-01T11:56:01.271Z,73
2023-02-01T11:57:31.696Z,73
2023-02-01T11:59:34.103Z,73
2023-02-01T12:01:04.433Z,73
2023-02-01T12:02:34.795Z,73
2023-02-01T12:04:05.244Z,73
2023-02-01T12:05:35.608Z,73
2023-02-01T12:07:05.823Z,74
2023-02-01T12:08:36.372Z,74
2023-02-01T12:10:06.760Z,74
2023-02-01T12:11:37.196Z,74
2023-02-01T12:13:07.745Z,74
2023-02-01T12:14:38.106Z,74
2023-02-01T12:16:08.600Z,74
2023-02-01T12:17:38.850Z,74
2023-02-01T12:19:09.477Z,74
2023-02-01T12:20:39.827Z,74
2023-02-01T12:22:10.209Z,74
2023-02-01T12:23:40.781Z,74
2023-02-01T12:25:11.173Z,74
2023-02-01T12:26:41.679Z,74
2023-02-01T12:28:12.033Z,74
2023-02-01T12:29:42.516Z,74
2023-02-01T12:31:13.020Z,74
2023-02-01T12:32:43.373Z,75
2023-02-01T12:34:13.790Z,74
2023-02-01T12:35:44.119Z,75
2023-02-01T12:37:14.513Z,74
2023-02-01T12:38:44.961Z,74
2023-02-01T12:40:15.452Z,74
2023-02-01T12:41:45.806Z,74
2023-02-01T12:43:16.174Z,74
2023-02-01T12:44:46.595Z,74
2023-02-01T12:46:53.979Z,73
2023-02-01T12:48:24.404Z,73
2023-02-01T12:49:54.852Z,73
2023-02-01T12:51:57.241Z,73
2023-02-01T12:53:27.710Z,72
2023-02-01T12:54:58.085Z,73
2023-02-01T12:56:28.525Z,72
2023-02-01T12:58:30.925Z,73
2023-02-01T13:00:01.360Z,73
2023-02-01T13:01:31.902Z,73
2023-02-01T13:03:34.259Z,74
2023-02-01T13:05:04.744Z,73
2023-02-01T13:06:35.059Z,73
2023-02-01T13:08:05.556Z,73
2023-02-01T13:09:35.881Z,73
2023-02-01T13:11:38.266Z,73
2023-02-01T13:13:10.155Z,73
2023-02-01T13:14:38.977Z,73
2023-02-01T13:16:41.581Z,73
2023-02-01T13:18:11.816Z,73
2023-02-01T13:19:42.329Z,73
2023-02-01T13:21:12.725Z,73
2023-02-01T13:22:43.137Z,73
2023-02-01T13:24:13.500Z,73
2023-02-01T13:25:43.975Z,73
2023-02-01T13:27:14.350Z,74
2023-02-01T13:28:44.812Z,74
2023-02-01T13:30:15.224Z,74
2023-02-01T13:31:46.083Z,74
2023-02-01T13:33:51.871Z,74
2023-02-01T13:35:18.455Z,74
2023-02-01T13:36:48.975Z,74
2023-02-01T13:38:19.248Z,74
2023-02-01T13:39:49.695Z,74
2023-02-01T13:41:52.132Z,74
2023-02-01T13:43:22.516Z,73
2023-02-01T13:44:52.892Z,73
2023-02-01T13:46:55.311Z,73
2023-02-01T13:48:25.748Z,73
2023-02-01T13:49:56.242Z,73
2023-02-01T13:51:58.678Z,73
2023-02-01T13:53:29.122Z,73
2023-02-01T13:54:59.587Z,73
2023-02-01T13:56:30.081Z,73
2023-02-01T13:58:32.551Z,72
2023-02-01T14:00:02.966Z,72
2023-02-01T14:01:33.440Z,72
2023-02-01T14:03:03.781Z,71
2023-02-01T14:04:34.413Z,71
2023-02-01T14:06:04.746Z,71
2023-02-01T14:07:35.242Z,71
2023-02-01T14:09:37.663Z,71
2023-02-01T14:11:08.145Z,71
2023-02-01T14:12:38.477Z,71
2023-02-01T14:14:08.966Z,71
2023-02-01T14:15:39.399Z,71
2023-02-01T14:17:41.851Z,71
2023-02-01T14:19:12.097Z,71
2023-02-01T14:20:42.623Z,71
2023-02-01T14:22:13.105Z,71
2023-02-01T14:23:43.525Z,71
2023-02-01T14:25:13.997Z,71
2023-02-01T14:26:44.375Z,71
2023-02-01T14:28:14.822Z,71
2023-02-01T14:29:45.278Z,71
2023-02-01T14:31:15.940Z,71
2023-02-01T14:33:18.241Z,71
2023-02-01T14:34:48.909Z,70
2023-02-01T14:36:19.130Z,70
2023-02-01T14:38:21.776Z,70
2023-02-01T14:39:52.281Z,70
2023-02-01T14:41:22.654Z,70
2023-02-01T14:43:33.071Z,70
2023-02-01T14:44:58.321Z,70
2023-02-01T14:46:26.023Z,70
2023-02-01T14:47:56.497Z,70
2023-02-01T14:49:26.720Z,71
2023-02-01T14:50:57.114Z,71
2023-02-01T14:52:27.548Z,71
2023-02-01T14:54:29.982Z,71
2023-02-01T14:56:00.481Z,70
2023-02-01T14:58:03.028Z,70
2023-02-01T14:59:33.451Z,70
2023-02-01T15:01:03.811Z,70
2023-02-01T15:02:34.193Z,70
2023-02-01T15:04:04.525Z,70
2023-02-01T15:05:35.101Z,70
2023-02-01T15:07:37.603Z,70
2023-02-01T15:09:39.983Z,70
2023-02-01T15:11:10.550Z,70
2023-02-01T15:13:12.935Z,70
2023-02-01T15:15:15.451Z,70
2023-02-01T15:16:46.011Z,70
2023-02-01T15:18:16.290Z,70
2023-02-01T15:19:46.733Z,70
2023-02-01T15:21:26.866Z,70
2023-02-01T15:22:47.628Z,70
2023-02-01T15:24:18.109Z,70
2023-02-01T15:25:48.598Z,70
2023-02-01T15:27:19.193Z,70
2023-02-01T15:28:49.657Z,70
2023-02-01T15:30:19.956Z,70
2023-02-01T15:31:50.717Z,70
2023-02-01T15:33:52.893Z,70
2023-02-01T15:35:55.311Z,70
2023-02-01T15:37:25.755Z,70
2023-02-01T15:38:56.194Z,70
2023-02-01T15:40:58.623Z,70
2023-02-01T15:42:29.009Z,70
2023-02-01T15:43:59.559Z,70
2023-02-01T15:45:30.015Z,70
2023-02-01T15:47:00.448Z,70
2023-02-01T15:48:30.775Z,70
2023-02-01T15:50:01.148Z,70
2023-02-01T15:51:31.760Z,70
2023-02-01T15:53:02.339Z,70
2023-02-01T15:54:32.794Z,70
2023-02-01T15:56:35.260Z,70
2023-02-01T15:58:05.672Z,70
2023-02-01T16:00:08.112Z,70
2023-02-01T16:02:10.659Z,70
2023-02-01T16:04:13.140Z,70
2023-02-01T16:05:43.651Z,70
2023-02-01T16:07:14.145Z,70
2023-02-01T16:08:44.575Z,70
2023-02-01T16:10:14.994Z,69
2023-02-01T16:11:45.415Z,69
2023-02-01T16:13:15.884Z,69
2023-02-01T16:14:46.344Z,69
2023-02-01T16:16:16.850Z,69
2023-02-01T16:17:47.107Z,69
2023-02-01T16:19:17.521Z,69
2023-02-01T16:20:48.084Z,69
2023-02-01T16:22:18.633Z,70
2023-02-01T16:23:49.045Z,70
2023-02-01T16:25:19.477Z,70
2023-02-01T16:27:21.935Z,70
2023-02-01T16:28:52.391Z,70
2023-02-01T16:30:22.797Z,70
2023-02-01T16:32:25.348Z,70
2023-02-01T16:33:55.823Z,70
2023-02-01T16:35:26.507Z,70
2023-02-01T16:37:28.725Z,71
2023-02-01T16:38:59.096Z,70
2023-02-01T16:40:29.570Z,70
2023-02-01T16:42:32.089Z,70
2023-02-01T16:44:02.492Z,70
2023-02-01T16:45:32.951Z,70
2023-02-01T16:47:35.560Z,70
2023-02-01T16:49:06.453Z,70
2023-02-01T16:50:36.594Z,71
2023-02-01T16:52:07.058Z,71
2023-02-01T16:54:09.529Z,70
2023-02-01T16:55:40.124Z,70
2023-02-01T16:57:10.465Z,70
2023-02-01T16:59:12.985Z,70
2023-02-01T17:00:43.591Z,70
2023-02-01T17:02:14.018Z,71
2023-02-01T17:03:44.482Z,70
2023-02-01T17:05:14.971Z,70
2023-02-01T17:07:17.363Z,71
2023-02-01T17:08:47.827Z,70
2023-02-01T17:10:50.335Z,71
2023-02-01T17:12:20.833Z,71
2023-02-01T17:13:51.281Z,71
2023-02-01T17:15:22.290Z,71
2023-02-01T17:16:52.446Z,71
2023-02-01T17:18:22.806Z,71
2023-02-01T17:19:53.379Z,71
2023-02-01T17:21:23.641Z,71
2023-02-01T17:22:54.103Z,71
2023-02-01T17:24:25.855Z,71
2023-02-01T17:25:54.918Z,71
2023-02-01T17:27:25.490Z,71
2023-02-01T17:28:55.963Z,71
2023-02-01T17:30:26.431Z,71
2023-02-01T17:31:56.887Z,71
2023-02-01T17:33:27.132Z,71
2023-02-01T17:34:57.608Z,71
2023-02-01T17:37:00.106Z,71
2023-02-01T17:38:30.535Z,70
2023-02-01T17:40:01.176Z,71
2023-02-01T17:41:31.617Z,71
2023-02-01T17:43:01.971Z,71
2023-02-01T17:44:32.644Z,71
2023-02-01T17:46:03.026Z,70
2023-02-01T17:47:33.338Z,71
2023-02-01T17:49:03.906Z,71
2023-02-01T17:50:34.497Z,71
2023-02-01T17:52:05.050Z,71
2023-02-01T17:53:35.462Z,71
2023-02-01T17:55:05.977Z,71
2023-02-01T17:56:36.448Z,71
2023-02-01T17:58:39.193Z,71
2023-02-01T18:00:09.592Z,71
2023-02-01T18:01:39.978Z,71
2023-02-01T18:03:10.179Z,71
2023-02-01T18:04:40.672Z,71
2023-02-01T18:06:43.140Z,71
2023-02-01T18:08:13.708Z,71
2023-02-01T18:09:44.204Z,71
2023-02-01T18:11:14.652Z,71
2023-02-01T18:12:45.323Z,71
2023-02-01T18:14:15.708Z,71
2023-02-01T18:15:46.143Z,71
2023-02-01T18:17:16.607Z,71
2023-02-01T18:18:47.063Z,71
2023-02-01T18:20:17.525Z,71
2023-02-01T18:21:48.033Z,71
2023-02-01T18:23:18.530Z,71
2023-02-01T18:24:49.070Z,71
2023-02-01T18:26:19.646Z,71
2023-02-01T18:27:49.974Z,71
2023-02-01T18:29:52.443Z,71
2023-02-01T18:31:23.148Z,72
2023-02-01T18:32:53.404Z,74
2023-02-01T18:34:23.829Z,76
2023-02-01T18:35:54.291Z,76
2023-02-01T18:37:24.860Z,74
2023-02-01T18:38:55.297Z,73
2023-02-01T18:40:25.723Z,72
2023-02-01T18:41:56.102Z,72
2023-02-01T18:43:58.525Z,71
2023-02-01T18:45:28.947Z,71
2023-02-01T18:46:59.387Z,71
2023-02-01T18:48:29.895Z,71
2023-02-01T18:50:00.169Z,71
2023-02-01T18:51:30.537Z,71
2023-02-01T18:53:00.919Z,71
2023-02-01T18:54:31.419Z,71
2023-02-01T18:56:01.848Z,71
2023-02-01T18:58:04.244Z,70
2023-02-01T18:59:34.643Z,70
2023-02-01T19:01:05.060Z,70
2023-02-01T19:02:35.492Z,70
2023-02-01T19:04:15.124Z,69
2023-02-01T19:05:36.009Z,69
2023-02-01T19:07:06.382Z,70
2023-02-01T19:09:08.867Z,69
2023-02-01T19:10:39.227Z,69
2023-02-01T19:12:09.580Z,69
2023-02-01T19:13:40.017Z,69
2023-02-01T19:15:10.387Z,69
2023-02-01T19:16:40.849Z,69
2023-02-01T19:18:43.291Z,69
2023-02-01T19:20:13.761Z,69
2023-02-01T19:22:16.244Z,69
2023-02-01T19:23:46.565Z,69
2023-02-01T19:25:17.085Z,69
2023-02-01T19:26:47.839Z,69
2023-02-01T19:28:18.027Z,69
2023-02-01T19:29:48.483Z,69
2023-02-01T19:31:19.056Z,69
2023-02-01T19:32:49.288Z,69
2023-02-01T19:34:19.781Z,69
2023-02-01T19:35:50.151Z,69
2023-02-01T19:37:20.479Z,69
2023-02-01T19:38:51.000Z,69
2023-02-01T19:40:21.406Z,69
2023-02-01T19:41:51.746Z,69
2023-02-01T19:43:22.157Z,69
2023-02-01T19:44:52.600Z,69
2023-02-01T19:46:23.180Z,69
2023-02-01T19:47:53.484Z,69
2023-02-01T19:49:23.788Z,69
2023-02-01T19:50:54.150Z,69
2023-02-01T19:52:24.471Z,69
2023-02-01T19:53:55.052Z,69
2023-02-01T19:55:25.922Z,69
2023-02-01T19:56:55.937Z,69
2023-02-01T19:58:26.391Z,69
2023-02-01T19:59:56.776Z,69
2023-02-01T20:01:26.432Z,69
2023-02-01T20:02:56.977Z,69
2023-02-01T20:04:59.401Z,69
2023-02-01T20:06:29.895Z,69
2023-02-01T20:08:00.298Z,69
2023-02-01T20:10:02.755Z,69
2023-02-01T20:11:33.276Z,69
2023-02-01T20:13:03.678Z,69
2023-02-01T20:14:34.138Z,69
2023-02-01T20:16:04.635Z,69
2023-02-01T20:17:34.911Z,69
2023-02-01T20:19:05.493Z,69
2023-02-01T20:20:36.011Z,69
2023-02-01T20:22:06.537Z,69
2023-02-01T20:23:36.906Z,69
2023-02-01T20:25:07.463Z,69
2023-02-01T20:26:38.838Z,69
2023-02-01T20:28:41.381Z,69
2023-02-01T20:30:43.888Z,69
2023-02-01T20:32:14.299Z,69
2023-02-01T20:33:44.850Z,69
2023-02-01T20:35:15.246Z,69
2023-02-01T20:36:45.744Z,69
2023-02-01T20:38:16.136Z,69
2023-02-01T20:39:46.534Z,69
2023-02-01T20:41:17.015Z,69
2023-02-01T20:43:19.534Z,69
2023-02-01T20:45:22.301Z,69
2023-02-01T20:46:52.439Z,69
2023-02-01T20:48:22.913Z,69
2023-02-01T20:49:53.434Z,69
2023-02-01T20:51:23.925Z,69
2023-02-01T20:52:54.427Z,69
2023-02-01T20:54:24.885Z,69
2023-02-01T20:55:55.402Z,69
2023-02-01T20:57:25.919Z,69
2023-02-01T20:58:56.438Z,69
2023-02-01T21:00:58.992Z,69
2023-02-01T21:02:29.445Z,69
2023-02-01T21:04:31.921Z,69
2023-02-01T21:06:02.441Z,69
2023-02-01T21:07:32.995Z,69
2023-02-01T21:09:03.475Z,69
2023-02-01T21:10:34.067Z,69
2023-02-01T21:12:04.557Z,69
2023-02-01T21:13:34.986Z,69
2023-02-01T21:15:05.460Z,69
2023-02-01T21:17:07.920Z,69
2023-02-01T21:19:10.431Z,69
2023-02-01T21:20:40.836Z,69
2023-02-01T21:22:11.305Z,69
2023-02-01T21:23:41.804Z,69
2023-02-01T21:25:12.309Z,69
2023-02-01T21:26:42.904Z,69
2023-02-01T21:28:13.168Z,69
2023-02-01T21:29:43.644Z,69
2023-02-01T21:31:14.328Z,69
2023-02-01T21:32:44.673Z,69
2023-02-01T21:34:15.050Z,69
2023-02-01T21:35:45.536Z,69
2023-02-01T21:37:15.813Z,69
2023-02-01T21:38:46.326Z,69
2023-02-01T21:40:16.771Z,69
2023-02-01T21:42:19.283Z,69
2023-02-01T21:44:21.727Z,69
2023-02-01T21:45:52.242Z,69
2023-02-01T21:47:26.083Z,69
2023-02-01T21:49:25.078Z,69
2023-02-01T21:50:55.482Z,69
2023-02-01T21:52:25.982Z,69
2023-02-01T21:53:56.440Z,69
2023-02-01T21:55:27.047Z,69
2023-02-01T21:56:57.455Z,69
2023-02-01T21:58:27.931Z,69
2023-02-01T21:59:58.333Z,69
2023-02-01T22:01:28.756Z,69
2023-02-01T22:02:59.136Z,69
2023-02-01T22:04:29.487Z,69
2023-02-01T22:05:59.966Z,69
2023-02-01T22:07:30.520Z,69
2023-02-01T22:09:00.914Z,69
2023-02-01T22:10:31.330Z,69
2023-02-01T22:12:01.857Z,69
2023-02-01T22:14:04.559Z,69
2023-02-01T22:15:35.039Z,69
2023-02-01T22:17:05.456Z,69
2023-02-01T22:19:07.997Z,69
2023-02-01T22:20:38.354Z,69
2023-02-01T22:22:08.778Z,69
2023-02-01T22:23:39.226Z,69
2023-02-01T22:25:09.684Z,69
2023-02-01T22:26:40.163Z,69
2023-02-01T22:28:42.540Z,69
2023-02-01T22:30:13.095Z,69
2023-02-01T22:31:43.651Z,69
2023-02-01T22:33:46.017Z,69